Plainfield, WI (54966)

2:06 AM CDT on April 28, 2017 (GMT -0500)
Hancock Village | | Change Station
Active Advisory: Flood Watch Active Notice: Flood Watch

Elev 1093 ft 44.13 °N, 89.52 °W | Updated 7 seconds ago

Overcast
Overcast
34.2 °F
Feels Like 25 °F
N
12.5
Wind Variable Wind from SW

Today
High -- | Low -- °F
--% Chance of Precip.
Yesterday
High -- | Low -- °F
Precip. -- in
Pressure 29.88 in
Visibility 10.0 miles
Clouds Overcast 2000 ft
Windchill 25 °F
Dew Point 30 °F
Humidity 86%
Rainfall 0.00 in
Snow Depth Not available.
5:53 AM 7:58 PM
Waxing Crescent, 5% visible
METAR KY50 280656Z AUTO 27012KT 10SM OVC020 02/M01 A2980 RMK AO2 RAB27E40 SLP119 T00171006
Pressure 29.88 in
Visibility 10.0 miles
Clouds Overcast 2000 ft
Windchill 25 °F
Dew Point 30 °F
Humidity 86%
Rainfall 0.00 in
Snow Depth Not available.
5:53 AM 7:58 PM
Waxing Crescent, 5% visible
METAR KY50 280656Z AUTO 27012KT 10SM OVC020 02/M01 A2980 RMK AO2 RAB27E40 SLP119 T00171006

Get Your Daily Forecast Email!

Thanks for signing up!

Be on the lookout for a verification email in your inbox.

You'll start receiving severe weather alerts in your inbox..

×

10-Day Weather Forecast

Almanac

Astronomy

Apr. 28, 2017 Rise Set
Actual Time
Civil Twilight
Nautical Twilight
Astronomical Twilight
Moon
Length of Visible Light
Length of Day
Tomorrow will be .
, % of the Moon is Illuminated

Today's Extremes

State Highs State Lows

Community

WunderPhotos

WunderBlog® & News

Nearby

Air Quality

  Air Quality AQ Index Pollutant
Not available.

Snow Depth

Station Depth Elevation

Earthquake Activity

City Distance Mag. Time & Date
Minimum magnitude displayed is 2.5.

Coastal Water Temperatures

Place Temperature

Stations

Nearby Weather Stations

Station Location Temp. Windchill Dew Point Humidity Wind Precip. Elev Updated Type
                   

Watches & Warnings

Flood Watch
Issued: 9:29 PM CDT Apr. 27, 2017 – National Weather Service

The National Weather Service in Milwaukee/Sullivan has issued a
* Flood Watch for
the Fox River near Berlin
* from late Friday night to Wednesday morning.
* At 8:15 PM Thursday the stage was 12.8 feet.
* Minor flooding is possible.
* Flood stage is 13.0 feet.
* Forecast... flood stage may be reached by early Saturday morning.


Lat... Lon 4398 8899 4398 8888 4391 8888 4389 8901
      4395 8911 4396 8908